Barkersville, New York
Current Conditions -  °F | °C
As of 6:55 PM on Saturday 22 Nov 2014 (Local Time) from KNY0 Reporting Station
Overcast Overcast  
Wind Chill: 29°   Ceiling: 2400
Heat Index: 29°   Visibility: 10mi
Dew Point: 26°   Wind: 0mph
Humidity: 91%   Direction: NA
Pressure: 30.06"   Gusts: NA
Location:  43.1097°N, 74.0176°W
Report Text: KNY0 222355Z AUTO 00000KT 10SM OVC024 M02/M03 A3006 RMK AO2 60001 T10181031 11005 21020
Loading
Personal Weather Stations






























Interactive Weather Map New forecast layout! Learn more

10-Day Weather Forecast

Advertisements
Track Severe Weather on mobile